createdAt,value
2022-08-17T00:01:24.182Z,97996.53
2022-08-17T00:03:53.847Z,97992.00
2022-08-17T00:06:25.389Z,97996.03
2022-08-17T00:08:53.783Z,97991.19
2022-08-17T00:11:28.535Z,98001.63
2022-08-17T00:13:57.384Z,97983.16
2022-08-17T00:16:50.502Z,97993.06
2022-08-17T00:19:22.241Z,97991.19
2022-08-17T00:21:56.417Z,97987.97
2022-08-17T00:24:36.289Z,97979.63
2022-08-17T00:27:03.331Z,97988.75
2022-08-17T00:29:29.827Z,97980.47
2022-08-17T00:31:56.330Z,97988.47
2022-08-17T00:34:25.132Z,97981.25
2022-08-17T00:36:54.391Z,97985.00
2022-08-17T00:39:20.892Z,97983.94
2022-08-17T00:41:47.678Z,97980.47
2022-08-17T00:44:14.609Z,97964.69
2022-08-17T00:46:42.204Z,97965.47
2022-08-17T00:49:08.970Z,97972.44
2022-08-17T00:51:47.373Z,97976.69
2022-08-17T00:54:24.509Z,97978.06
2022-08-17T00:56:53.891Z,97975.69
2022-08-17T00:59:21.702Z,97980.22
2022-08-17T01:01:48.645Z,97977.03
2022-08-17T01:04:15.142Z,97984.31
2022-08-17T01:06:41.976Z,97976.31
2022-08-17T01:09:08.715Z,97973.13
2022-08-17T01:11:37.102Z,97965.59
2022-08-17T01:14:03.648Z,97969.06
2022-08-17T01:16:30.951Z,97970.94
2022-08-17T01:19:11.422Z,97968.28
2022-08-17T01:21:48.915Z,97969.59
2022-08-17T01:24:15.586Z,97972.78
2022-08-17T01:26:44.582Z,97970.38
2022-08-17T01:29:11.509Z,97971.69
2022-08-17T01:31:40.296Z,97972.47
2022-08-17T01:34:08.754Z,97968.75
2022-08-17T01:36:36.745Z,97970.38
2022-08-17T01:39:05.031Z,97974.41
2022-08-17T01:41:31.505Z,97973.31
2022-08-17T01:44:03.199Z,97975.50
2022-08-17T01:46:32.214Z,97969.88
2022-08-17T01:48:59.156Z,97960.88
2022-08-17T01:51:33.018Z,97972.84
2022-08-17T01:54:00.651Z,97977.69
2022-08-17T01:56:27.195Z,97970.72
2022-08-17T01:58:53.761Z,97966.19
2022-08-17T02:01:21.636Z,97966.47
2022-08-17T02:03:59.488Z,97960.84
2022-08-17T02:06:31.632Z,97961.91
2022-08-17T02:09:16.501Z,97958.44
2022-08-17T02:11:43.851Z,97964.88
2022-08-17T02:14:11.820Z,97963.28
2022-08-17T02:16:39.320Z,97972.91
2022-08-17T02:19:11.160Z,97967.84
2022-08-17T02:21:37.861Z,97968.09
2022-08-17T02:24:05.916Z,97967.59
2022-08-17T02:26:32.490Z,97970.78
2022-08-17T02:28:58.987Z,97967.88
2022-08-17T02:31:25.475Z,97965.75
2022-08-17T02:34:00.403Z,97954.84
2022-08-17T02:36:31.082Z,97960.41
2022-08-17T02:38:58.579Z,97961.50
2022-08-17T02:41:25.252Z,97962.00
2022-08-17T02:43:52.199Z,97956.94
2022-08-17T02:46:19.471Z,97967.41
2022-08-17T02:48:45.985Z,97958.88
2022-08-17T02:51:12.484Z,97951.66
2022-08-17T02:53:38.991Z,97961.03
2022-08-17T02:56:05.544Z,97957.84
2022-08-17T02:58:35.086Z,97965.34
2022-08-17T03:01:04.043Z,97957.63
2022-08-17T03:03:30.567Z,97959.22
2022-08-17T03:05:57.060Z,97958.41
2022-08-17T03:08:23.916Z,97959.50
2022-08-17T03:10:50.550Z,97953.63
2022-08-17T03:13:17.320Z,97951.78
2022-08-17T03:15:45.184Z,97958.72
2022-08-17T03:18:24.209Z,97952.03
2022-08-17T03:20:54.514Z,97955.25
2022-08-17T03:23:23.993Z,97957.38
2022-08-17T03:25:53.368Z,97959.25
2022-08-17T03:28:20.147Z,97959.25
2022-08-17T03:30:46.645Z,97956.31
2022-08-17T03:33:13.141Z,97955.50
2022-08-17T03:35:40.375Z,97954.72
2022-08-17T03:38:07.939Z,97956.31
2022-08-17T03:40:57.442Z,97959.56
2022-08-17T03:43:21.637Z,97954.72
2022-08-17T03:46:10.110Z,97956.31
2022-08-17T03:49:11.827Z,97953.13
2022-08-17T03:51:56.705Z,97952.84
2022-08-17T03:54:41.649Z,97954.72
2022-08-17T03:57:09.174Z,97955.50
2022-08-17T03:59:35.862Z,97947.56
2022-08-17T04:02:09.034Z,97945.41
2022-08-17T04:04:36.000Z,97947.28
2022-08-17T04:07:02.503Z,97946.25
2022-08-17T04:09:29.009Z,97955.06
2022-08-17T04:11:55.551Z,97950.28
2022-08-17T04:14:26.940Z,97951.59
2022-08-17T04:16:53.605Z,97944.88
2022-08-17T04:19:20.100Z,97951.53
2022-08-17T04:21:46.636Z,97949.38
2022-08-17T04:24:13.133Z,97951.53
2022-08-17T04:26:52.314Z,97956.09
2022-08-17T04:29:21.340Z,97958.47
2022-08-17T04:31:48.023Z,97961.44
2022-08-17T04:34:14.520Z,97963.25
2022-08-17T04:36:50.089Z,97964.06
2022-08-17T04:39:17.022Z,97971.78
2022-08-17T04:42:01.992Z,97966.44
2022-08-17T04:44:37.579Z,97973.38
2022-08-17T04:47:04.729Z,97970.94
2022-08-17T04:49:32.504Z,97974.41
2022-08-17T04:52:01.266Z,97972.25
2022-08-17T04:54:30.995Z,97975.97
2022-08-17T04:56:57.478Z,97975.47
2022-08-17T04:59:23.968Z,97982.72
2022-08-17T05:01:50.920Z,97986.47
2022-08-17T05:04:33.950Z,97981.91
2022-08-17T05:07:01.252Z,97991.81
2022-08-17T05:09:28.065Z,97994.75
2022-08-17T05:11:55.307Z,97996.91
2022-08-17T05:14:32.904Z,97999.28
2022-08-17T05:17:01.205Z,98000.09
2022-08-17T05:19:28.461Z,98006.22
2022-08-17T05:21:54.954Z,98003.56
2022-08-17T05:24:38.964Z,98006.22
2022-08-17T05:27:08.387Z,98013.19
2022-08-17T05:29:35.575Z,98005.97
2022-08-17T05:32:39.439Z,98003.28
2022-08-17T05:34:59.411Z,98005.97
2022-08-17T05:37:25.916Z,98006.47
2022-08-17T05:39:53.766Z,98001.13
2022-08-17T05:42:20.338Z,97999.53
2022-08-17T05:44:46.847Z,98006.47
2022-08-17T05:47:13.345Z,98007.00
2022-08-17T05:49:39.832Z,97999.25
2022-08-17T05:52:33.526Z,98005.69
2022-08-17T05:55:20.118Z,97999.25
2022-08-17T05:57:59.898Z,98012.34
2022-08-17T06:00:30.777Z,98008.06
2022-08-17T06:03:10.836Z,98011.03
2022-08-17T06:05:52.532Z,98009.13
2022-08-17T06:08:37.879Z,98013.41
2022-08-17T06:11:10.137Z,98009.66
2022-08-17T06:14:02.809Z,98008.53
2022-08-17T06:16:34.841Z,98014.66
2022-08-17T06:19:10.102Z,98006.09
2022-08-17T06:21:39.655Z,98006.34
2022-08-17T06:24:08.647Z,98006.88
2022-08-17T06:26:42.803Z,98003.91
2022-08-17T06:29:41.968Z,98007.16
2022-08-17T06:32:09.740Z,98004.69
2022-08-17T06:34:39.305Z,97999.88
2022-08-17T06:37:39.176Z,98003.56
2022-08-17T06:40:21.121Z,98008.84
2022-08-17T06:43:06.803Z,98008.31
2022-08-17T06:45:39.335Z,98009.41
2022-08-17T06:48:15.377Z,98005.94
2022-08-17T06:50:48.204Z,98005.94
2022-08-17T06:53:20.991Z,98008.31
2022-08-17T06:55:52.552Z,98011.22
2022-08-17T06:58:21.647Z,98011.22
2022-08-17T07:00:48.823Z,98006.75
2022-08-17T07:03:35.731Z,98011.66
2022-08-17T07:06:14.712Z,98009.81
2022-08-17T07:09:01.043Z,98015.41
2022-08-17T07:11:30.235Z,98013.31
2022-08-17T07:14:30.683Z,98018.38
2022-08-17T07:16:58.484Z,98024.00
2022-08-17T07:19:27.657Z,98024.81
2022-08-17T07:22:22.085Z,98022.63
2022-08-17T07:24:58.340Z,98012.72
2022-08-17T07:27:27.606Z,98013.56
2022-08-17T07:30:06.872Z,98019.69
2022-08-17T07:33:13.563Z,98018.91
2022-08-17T07:35:44.023Z,98022.91
2022-08-17T07:38:26.918Z,98027.16
2022-08-17T07:41:03.116Z,98025.81
2022-08-17T07:43:39.432Z,98023.63
2022-08-17T07:46:40.157Z,98028.69
2022-08-17T07:49:09.334Z,98023.34
2022-08-17T07:51:40.800Z,98027.34
2022-08-17T07:54:16.550Z,98024.09
2022-08-17T07:56:48.248Z,98025.75
2022-08-17T07:59:35.794Z,98031.53
2022-08-17T08:02:56.411Z,98029.09
2022-08-17T08:05:32.883Z,98029.59
2022-08-17T08:08:44.932Z,98034.09
2022-08-17T08:11:12.852Z,98032.22
2022-08-17T08:13:43.815Z,98040.47
2022-08-17T08:16:24.483Z,98040.47
2022-08-17T08:18:56.774Z,98040.19
2022-08-17T08:21:36.046Z,98042.88
2022-08-17T08:24:30.102Z,98043.38
2022-08-17T08:27:09.595Z,98045.25
2022-08-17T08:29:52.751Z,98047.38
2022-08-17T08:32:31.686Z,98053.44
2022-08-17T08:35:14.773Z,98046.72
2022-08-17T08:37:53.990Z,98049.63
2022-08-17T08:40:53.334Z,98041.03
2022-08-17T08:43:42.429Z,98039.09
2022-08-17T08:46:27.221Z,98040.91
2022-08-17T08:49:00.182Z,98040.91
2022-08-17T08:51:55.310Z,98042.00
2022-08-17T08:54:47.467Z,98040.66
2022-08-17T08:57:29.044Z,98045.22
2022-08-17T09:00:07.162Z,98046.81
2022-08-17T09:03:08.911Z,98050.28
2022-08-17T09:05:57.396Z,98049.50
2022-08-17T09:08:32.928Z,98048.69
2022-08-17T09:11:06.673Z,98046.81
2022-08-17T09:13:45.489Z,98044.94
2022-08-17T09:16:33.195Z,98050.28
2022-08-17T09:19:30.473Z,98051.59
2022-08-17T09:22:03.516Z,98049.16
2022-08-17T09:24:37.377Z,98045.72
2022-08-17T09:27:20.475Z,98045.72
2022-08-17T09:29:53.723Z,98044.94
2022-08-17T09:32:31.387Z,98040.66
2022-08-17T09:35:01.492Z,98041.19
2022-08-17T09:37:29.663Z,98041.13
2022-08-17T09:40:13.736Z,98033.88
2022-08-17T09:42:44.380Z,98039.25
2022-08-17T09:45:30.458Z,98035.72
2022-08-17T09:48:06.579Z,98036.25
2022-08-17T09:51:04.094Z,98030.69
2022-08-17T09:53:32.250Z,98032.31
2022-08-17T09:56:05.381Z,98031.22
2022-08-17T09:58:50.438Z,98038.09
2022-08-17T10:01:29.424Z,98037.63
2022-08-17T10:04:20.319Z,98033.06
2022-08-17T10:06:52.573Z,98027.91
2022-08-17T10:09:34.280Z,98025.19
2022-08-17T10:12:20.581Z,98029.50
2022-08-17T10:15:22.502Z,98028.66
2022-08-17T10:18:17.969Z,98028.66
2022-08-17T10:21:24.507Z,98021.91
2022-08-17T10:24:12.977Z,98021.81
2022-08-17T10:26:55.959Z,98019.59
2022-08-17T10:29:52.585Z,98017.00
2022-08-17T10:32:50.380Z,98012.59
2022-08-17T10:35:34.091Z,98021.41
2022-08-17T10:38:38.328Z,98014.66
2022-08-17T10:41:22.102Z,98015.41
2022-08-17T10:43:57.807Z,98017.34
2022-08-17T10:46:54.236Z,98017.16
2022-08-17T10:49:21.117Z,98011.78
2022-08-17T10:51:49.114Z,98015.53
2022-08-17T10:54:24.440Z,98012.94
2022-08-17T10:56:57.063Z,98010.19
2022-08-17T10:59:35.764Z,98011.50
2022-08-17T11:02:19.465Z,98014.59
2022-08-17T11:04:49.573Z,98008.66
2022-08-17T11:07:37.174Z,98006.53
2022-08-17T11:10:49.927Z,98005.03
2022-08-17T11:13:33.637Z,97996.84
2022-08-17T11:16:21.219Z,97998.09
2022-08-17T11:19:15.988Z,98001.78
2022-08-17T11:21:56.139Z,98000.56
2022-08-17T11:24:33.845Z,97997.25
2022-08-17T11:27:12.351Z,97997.59
2022-08-17T11:29:56.803Z,97998.53
2022-08-17T11:32:31.839Z,97999.91
2022-08-17T11:35:24.491Z,98000.41
2022-08-17T11:38:19.799Z,98002.88
2022-08-17T11:41:06.992Z,97997.72
2022-08-17T11:44:11.067Z,98004.53
2022-08-17T11:47:14.444Z,98001.41
2022-08-17T11:50:15.910Z,98003.91
2022-08-17T11:52:47.209Z,98004.97
2022-08-17T11:55:44.761Z,98008.34
2022-08-17T11:58:29.416Z,98013.84
2022-08-17T12:01:03.227Z,98007.75
2022-08-17T12:03:32.912Z,98014.38
2022-08-17T12:06:17.461Z,98013.75
2022-08-17T12:08:49.870Z,98014.56
2022-08-17T12:12:01.622Z,98016.75
2022-08-17T12:14:32.265Z,98012.72
2022-08-17T12:17:10.244Z,98014.22
2022-08-17T12:19:37.698Z,98020.28
2022-08-17T12:22:22.268Z,98014.94
2022-08-17T12:25:19.624Z,98006.81
2022-08-17T12:28:05.591Z,98005.81
2022-08-17T12:30:33.522Z,98004.44
2022-08-17T12:33:00.011Z,98007.38
2022-08-17T12:35:34.403Z,98007.81
2022-08-17T12:38:01.183Z,98011.38
2022-08-17T12:40:30.074Z,98004.72
2022-08-17T12:43:20.452Z,98010.50
2022-08-17T12:45:56.846Z,98001.28
2022-08-17T12:48:24.665Z,97998.88
2022-08-17T12:50:51.303Z,97997.78
2022-08-17T12:53:21.610Z,98005.44
2022-08-17T12:55:48.759Z,98001.13
2022-08-17T12:58:22.474Z,97999.09
2022-08-17T13:00:50.817Z,97996.69
2022-08-17T13:03:19.285Z,98002.59
2022-08-17T13:05:51.780Z,97996.81
2022-08-17T13:08:20.672Z,97999.97
2022-08-17T13:11:01.729Z,97996.31
2022-08-17T13:13:30.255Z,97994.22
2022-08-17T13:16:01.122Z,97989.16
2022-08-17T13:18:38.941Z,97993.22
2022-08-17T13:21:06.810Z,97999.09
2022-08-17T13:23:33.360Z,97991.91
2022-08-17T13:26:07.732Z,97993.03
2022-08-17T13:28:36.363Z,97989.81
2022-08-17T13:31:21.606Z,97993.41
2022-08-17T13:33:48.124Z,97998.19
2022-08-17T13:36:28.965Z,97994.66
2022-08-17T13:39:08.738Z,98000.50
2022-08-17T13:41:36.739Z,97993.63
2022-08-17T13:44:32.208Z,97999.56
2022-08-17T13:46:59.608Z,98000.66
2022-08-17T13:49:26.338Z,97992.75
2022-08-17T13:52:37.941Z,97994.81
2022-08-17T13:55:08.359Z,97996.41
2022-08-17T13:57:34.839Z,97991.91
2022-08-17T14:00:12.211Z,97992.72
2022-08-17T14:02:39.079Z,97996.69
2022-08-17T14:05:06.221Z,97992.50
2022-08-17T14:07:36.025Z,97989.81
2022-08-17T14:10:09.287Z,97994.38
2022-08-17T14:12:35.879Z,97996.09
2022-08-17T14:15:02.519Z,98000.44
2022-08-17T14:17:29.565Z,98001.41
2022-08-17T14:19:56.078Z,98006.97
2022-08-17T14:22:31.829Z,98004.69
2022-08-17T14:24:59.115Z,98014.78
2022-08-17T14:27:28.096Z,98009.81
2022-08-17T14:29:55.465Z,98012.50
2022-08-17T14:32:30.368Z,98011.09
2022-08-17T14:34:57.673Z,98011.97
2022-08-17T14:37:26.231Z,98013.06
2022-08-17T14:39:59.997Z,97996.00
2022-08-17T14:42:27.233Z,97980.94
2022-08-17T14:44:54.307Z,97991.66
2022-08-17T14:47:20.816Z,97997.56
2022-08-17T14:49:50.674Z,98008.66
2022-08-17T14:52:21.419Z,98006.63
2022-08-17T14:54:51.852Z,98014.59
2022-08-17T14:57:24.712Z,98010.56
2022-08-17T15:00:00.539Z,98011.13
2022-08-17T15:02:31.019Z,98010.47
2022-08-17T15:05:05.194Z,98004.75
2022-08-17T15:07:31.864Z,98007.63
2022-08-17T15:10:02.017Z,97999.97
2022-08-17T15:12:32.822Z,97998.66
2022-08-17T15:15:00.810Z,97999.03
2022-08-17T15:17:27.398Z,97992.28
2022-08-17T15:20:17.330Z,97993.16
2022-08-17T15:22:44.314Z,97987.31
2022-08-17T15:25:11.062Z,97987.09
2022-08-17T15:27:37.556Z,97985.19
2022-08-17T15:30:07.380Z,97986.28
2022-08-17T15:32:37.862Z,97984.41
2022-08-17T15:35:05.105Z,97970.31
2022-08-17T15:37:34.413Z,97970.00
2022-08-17T15:40:01.259Z,97958.00
2022-08-17T15:42:29.158Z,97952.56
2022-08-17T15:44:55.659Z,97956.84
2022-08-17T15:47:22.263Z,97957.72
2022-08-17T15:49:48.820Z,97951.88
2022-08-17T15:52:17.592Z,97949.19
2022-08-17T15:54:52.337Z,97942.75
2022-08-17T15:57:19.024Z,97929.84
2022-08-17T15:59:46.136Z,97933.13
2022-08-17T16:03:46.814Z,97928.03
2022-08-17T16:05:15.016Z,97929.13
2022-08-17T16:07:44.012Z,97927.56
2022-08-17T16:10:13.187Z,97926.16
2022-08-17T16:12:45.092Z,97926.16
2022-08-17T16:15:11.660Z,97918.66
2022-08-17T16:17:40.261Z,97912.41
2022-08-17T16:20:20.512Z,97918.25
2022-08-17T16:22:49.688Z,97912.31
2022-08-17T16:25:18.960Z,97910.31
2022-08-17T16:27:46.168Z,97910.53
2022-08-17T16:30:17.103Z,97902.97
2022-08-17T16:32:44.430Z,97898.44
2022-08-17T16:35:11.908Z,97898.72
2022-08-17T16:37:40.234Z,97897.94
2022-08-17T16:40:11.660Z,97897.44
2022-08-17T16:42:38.535Z,97896.34
2022-08-17T16:45:10.598Z,97912.72
2022-08-17T16:47:37.145Z,97903.84
2022-08-17T16:50:05.092Z,97901.56
2022-08-17T16:52:32.410Z,97891.88
2022-08-17T16:55:00.476Z,97905.56
2022-08-17T16:57:27.031Z,97902.38
2022-08-17T16:59:53.641Z,97900.47
2022-08-17T17:02:37.086Z,97900.78
2022-08-17T17:05:42.375Z,97905.34
2022-08-17T17:08:14.075Z,97895.91
2022-08-17T17:10:43.487Z,97902.38
2022-08-17T17:13:17.301Z,97902.06
2022-08-17T17:16:12.001Z,97903.69
2022-08-17T17:18:42.791Z,97907.16
2022-08-17T17:21:16.892Z,97912.50
2022-08-17T17:23:59.683Z,97919.75
2022-08-17T17:26:51.358Z,97918.44
2022-08-17T17:29:23.867Z,97918.22
2022-08-17T17:32:02.934Z,97922.19
2022-08-17T17:34:29.834Z,97933.69
2022-08-17T17:36:57.838Z,97932.13
2022-08-17T17:39:41.322Z,97932.41
2022-08-17T17:42:19.927Z,97930.53
2022-08-17T17:44:59.163Z,97932.69
2022-08-17T17:47:26.567Z,97926.06
2022-08-17T17:49:53.332Z,97935.66
2022-08-17T17:52:26.912Z,97934.97
2022-08-17T17:55:35.090Z,97936.03
2022-08-17T17:58:10.616Z,97942.19
2022-08-17T18:00:44.554Z,97936.41
2022-08-17T18:03:13.104Z,97932.28
2022-08-17T18:05:44.583Z,97939.00
2022-08-17T18:08:33.857Z,97941.69
2022-08-17T18:11:24.166Z,97939.78
2022-08-17T18:14:17.246Z,97939.28
2022-08-17T18:16:46.343Z,97941.47
2022-08-17T18:19:14.141Z,97936.41
2022-08-17T18:21:44.675Z,97945.53
2022-08-17T18:24:11.389Z,97939.13
2022-08-17T18:26:55.266Z,97947.16
2022-08-17T18:29:27.963Z,97944.47
2022-08-17T18:32:15.703Z,97953.06
2022-08-17T18:34:47.794Z,97944.41
2022-08-17T18:37:30.989Z,97949.91
2022-08-17T18:39:57.542Z,97954.16
2022-08-17T18:42:33.046Z,97948.91
2022-08-17T18:44:59.582Z,97950.56
2022-08-17T18:47:27.373Z,97959.75
2022-08-17T18:49:58.891Z,97964.16
2022-08-17T18:52:32.510Z,97967.69
2022-08-17T18:55:19.995Z,97965.47
2022-08-17T18:57:50.484Z,97959.44
2022-08-17T19:00:29.766Z,97966.00
2022-08-17T19:02:59.711Z,97949.38
2022-08-17T19:05:34.810Z,97959.69
2022-08-17T19:08:15.876Z,97959.06
2022-08-17T19:10:47.007Z,97962.91
2022-08-17T19:13:24.020Z,97966.00
2022-08-17T19:16:28.085Z,97973.97
2022-08-17T19:19:30.632Z,97978.28
2022-08-17T19:22:29.244Z,97971.28
2022-08-17T19:25:11.535Z,97967.03
2022-08-17T19:27:49.204Z,97968.63
2022-08-17T19:30:16.752Z,97960.66
2022-08-17T19:32:43.318Z,97966.56
2022-08-17T19:35:16.654Z,97962.88
2022-08-17T19:38:03.348Z,97964.69
2022-08-17T19:40:52.305Z,97971.91
2022-08-17T19:43:23.637Z,97966.47
2022-08-17T19:46:02.276Z,97965.69
2022-08-17T19:49:00.147Z,97971.03
2022-08-17T19:51:34.045Z,97976.16
2022-08-17T19:54:06.303Z,97971.72
2022-08-17T19:57:06.594Z,97974.00
2022-08-17T19:59:56.410Z,97977.78
2022-08-17T20:02:28.899Z,97976.25
2022-08-17T20:04:57.616Z,97980.47
2022-08-17T20:07:26.870Z,97990.31
2022-08-17T20:10:03.987Z,97990.06
2022-08-17T20:12:33.545Z,98004.69
2022-08-17T20:15:17.036Z,97997.13
2022-08-17T20:17:45.051Z,98005.59
2022-08-17T20:20:38.288Z,98008.75
2022-08-17T20:23:43.473Z,98015.16
2022-08-17T20:26:30.334Z,98017.59
2022-08-17T20:29:14.972Z,98023.94
2022-08-17T20:31:45.482Z,98022.22
2022-08-17T20:34:33.504Z,98019.75
2022-08-17T20:37:09.622Z,98020.56
2022-08-17T20:39:44.952Z,98016.81
2022-08-17T20:42:28.693Z,98017.31
2022-08-17T20:44:59.138Z,98023.44
2022-08-17T20:47:28.868Z,98025.06
2022-08-17T20:50:04.715Z,98032.00
2022-08-17T20:53:03.977Z,98030.91
2022-08-17T20:55:36.476Z,98034.38
2022-08-17T20:58:24.889Z,98034.38
2022-08-17T21:00:57.458Z,98032.50
2022-08-17T21:03:23.875Z,98033.59
2022-08-17T21:05:59.820Z,98032.50
2022-08-17T21:08:29.620Z,98032.22
2022-08-17T21:10:56.737Z,98034.09
2022-08-17T21:13:48.592Z,98037.56
2022-08-17T21:16:27.566Z,98038.38
2022-08-17T21:19:04.896Z,98034.88
2022-08-17T21:21:58.294Z,98038.16
2022-08-17T21:24:50.482Z,98034.44
2022-08-17T21:27:27.291Z,98040.28
2022-08-17T21:30:34.072Z,98044.53
2022-08-17T21:33:28.759Z,98046.41
2022-08-17T21:35:58.570Z,98041.06
2022-08-17T21:38:47.304Z,98033.03
2022-08-17T21:41:21.083Z,98040.22
2022-08-17T21:43:49.382Z,98035.72
2022-08-17T21:46:24.278Z,98027.69
2022-08-17T21:48:54.266Z,98024.72
2022-08-17T21:51:23.380Z,98033.81
2022-08-17T21:53:55.741Z,98038.38
2022-08-17T21:56:36.222Z,98038.09
2022-08-17T21:59:04.796Z,98038.09
2022-08-17T22:01:39.368Z,98040.75
2022-08-17T22:04:06.545Z,98045.03
2022-08-17T22:06:38.359Z,98046.91
2022-08-17T22:09:11.333Z,98043.13
2022-08-17T22:11:53.947Z,98044.53
2022-08-17T22:14:25.563Z,98049.81
2022-08-17T22:17:14.594Z,98058.94
2022-08-17T22:19:42.141Z,98057.84
2022-08-17T22:22:11.008Z,98060.22
2022-08-17T22:24:37.514Z,98076.56
2022-08-17T22:27:11.389Z,98080.81
2022-08-17T22:29:57.371Z,98086.97
2022-08-17T22:32:41.607Z,98089.94
2022-08-17T22:35:32.570Z,98098.75
2022-08-17T22:38:17.777Z,98094.50
2022-08-17T22:40:46.001Z,98091.81
2022-08-17T22:43:12.533Z,98091.03
2022-08-17T22:45:47.047Z,98095.84
2022-08-17T22:48:16.772Z,98104.94
2022-08-17T22:50:43.547Z,98104.94
2022-08-17T22:53:32.219Z,98105.50
2022-08-17T22:56:17.331Z,98104.44
2022-08-17T22:59:09.454Z,98108.72
2022-08-17T23:01:36.064Z,98103.94
2022-08-17T23:04:05.707Z,98106.59
2022-08-17T23:06:36.405Z,98109.28
2022-08-17T23:09:04.186Z,98118.09
2022-08-17T23:11:48.907Z,98114.34
2022-08-17T23:14:18.328Z,98108.72
2022-08-17T23:16:44.838Z,98102.28
2022-08-17T23:19:12.496Z,98098.81
2022-08-17T23:21:39.002Z,98103.38
2022-08-17T23:24:08.774Z,98090.25
2022-08-17T23:26:39.114Z,98083.63
2022-08-17T23:29:06.661Z,98094.03
2022-08-17T23:31:34.528Z,98083.31
2022-08-17T23:34:01.552Z,98083.56
2022-08-17T23:36:28.234Z,98081.19
2022-08-17T23:38:54.763Z,98081.97
2022-08-17T23:41:21.638Z,98074.78
2022-08-17T23:43:49.245Z,98074.50
2022-08-17T23:46:16.264Z,98068.84
2022-08-17T23:48:43.315Z,98075.59
2022-08-17T23:51:12.720Z,98073.41
2022-08-17T23:53:45.137Z,98071.81
2022-08-17T23:56:11.956Z,98072.31
2022-08-17T23:58:39.995Z,98072.91
